createdAt,value
2023-02-11T17:00:37.944Z,17.40
2023-02-11T17:03:09.290Z,16.50
2023-02-11T17:05:58.301Z,15.50
2023-02-11T17:08:26.427Z,16.20
2023-02-11T17:10:54.601Z,15.80
2023-02-11T17:13:23.013Z,15.30
2023-02-11T17:15:51.542Z,16.80
2023-02-11T17:18:19.958Z,15.90
2023-02-11T17:20:47.969Z,16.90
2023-02-11T17:23:17.834Z,15.80
2023-02-11T17:25:45.906Z,15.40
2023-02-11T17:28:14.029Z,15.00
2023-02-11T17:30:43.725Z,15.70
2023-02-11T17:33:12.200Z,15.10
2023-02-11T17:35:41.622Z,14.50
2023-02-11T17:38:09.580Z,15.90
2023-02-11T17:40:38.610Z,13.60
2023-02-11T17:43:06.732Z,16.30
2023-02-11T17:45:36.204Z,15.50
2023-02-11T17:48:04.379Z,15.20
2023-02-11T17:50:36.244Z,15.50
2023-02-11T17:53:11.492Z,14.90
2023-02-11T17:55:40.092Z,17.00
2023-02-11T17:58:08.267Z,15.80
2023-02-11T18:00:36.486Z,14.80
2023-02-11T18:03:04.536Z,16.00
2023-02-11T18:05:37.243Z,15.10
2023-02-11T18:08:06.908Z,15.40
2023-02-11T18:10:36.691Z,15.50
2023-02-11T18:13:04.808Z,16.20
2023-02-11T18:15:36.942Z,14.50
2023-02-11T18:18:04.944Z,16.60
2023-02-11T18:20:32.920Z,16.30
2023-02-11T18:23:01.543Z,16.20
2023-02-11T18:25:30.145Z,15.90
2023-02-11T18:27:58.572Z,15.40
2023-02-11T18:30:28.056Z,16.00
2023-02-11T18:32:56.686Z,15.90
2023-02-11T18:35:25.228Z,16.50
2023-02-11T18:37:53.149Z,15.90
2023-02-11T18:40:21.354Z,16.70
2023-02-11T18:42:51.215Z,16.40
2023-02-11T18:45:19.426Z,16.40
2023-02-11T18:47:47.456Z,16.60
2023-02-11T18:50:16.206Z,16.60
2023-02-11T18:52:44.283Z,16.80
2023-02-11T18:55:12.402Z,17.20
2023-02-11T18:57:40.736Z,15.90
2023-02-11T19:00:10.149Z,18.30
2023-02-11T19:02:38.262Z,17.40
2023-02-11T19:05:06.950Z,17.60
2023-02-11T19:07:35.631Z,16.60
2023-02-11T19:10:05.970Z,16.30
2023-02-11T19:12:34.891Z,16.60
2023-02-11T19:15:07.484Z,18.90
2023-02-11T19:17:35.615Z,17.70
2023-02-11T19:20:06.001Z,17.20
2023-02-11T19:22:34.379Z,16.80
2023-02-11T19:25:02.431Z,17.40
2023-02-11T19:27:30.522Z,17.20
2023-02-11T19:29:58.507Z,19.50
2023-02-11T19:32:26.550Z,16.60
2023-02-11T19:34:54.452Z,18.50
2023-02-11T19:37:22.523Z,17.90
2023-02-11T19:39:50.993Z,19.60
2023-02-11T19:42:19.596Z,17.50
2023-02-11T19:44:47.662Z,18.20
2023-02-11T19:47:16.085Z,17.90
2023-02-11T19:49:45.531Z,20.00
2023-02-11T19:52:14.083Z,18.60
2023-02-11T19:54:42.408Z,18.90
2023-02-11T19:57:14.102Z,18.50
2023-02-11T19:59:42.175Z,19.50
2023-02-11T20:02:12.895Z,18.70
2023-02-11T20:04:42.512Z,18.40
2023-02-11T20:07:10.552Z,19.70
2023-02-11T20:09:40.913Z,18.80
2023-02-11T20:12:08.911Z,18.90
2023-02-11T20:14:37.851Z,18.60
2023-02-11T20:17:06.062Z,18.20
2023-02-11T20:19:35.904Z,18.20
2023-02-11T20:22:03.984Z,20.90
2023-02-11T20:24:32.172Z,20.20
2023-02-11T20:27:00.146Z,19.30
2023-02-11T20:29:31.165Z,19.00
2023-02-11T20:31:59.704Z,19.60
2023-02-11T20:34:27.908Z,18.80
2023-02-11T20:36:57.297Z,21.00
2023-02-11T20:39:26.888Z,20.20
2023-02-11T20:41:56.611Z,18.70
2023-02-11T20:44:24.772Z,20.10
2023-02-11T20:46:54.145Z,18.60
2023-02-11T20:49:24.400Z,19.90
2023-02-11T20:51:54.023Z,20.70
2023-02-11T20:54:23.377Z,19.60
2023-02-11T20:56:56.878Z,19.60
2023-02-11T21:01:56.673Z,19.80
2023-02-11T21:04:29.914Z,19.00
2023-02-11T21:07:01.681Z,20.60
2023-02-11T21:09:32.219Z,20.10
2023-02-11T21:12:03.904Z,20.70
2023-02-11T21:14:32.444Z,21.70
2023-02-11T21:17:00.769Z,20.50
2023-02-11T21:19:28.981Z,19.30
2023-02-11T21:22:00.545Z,21.20
2023-02-11T21:24:28.629Z,19.90
2023-02-11T21:26:59.506Z,19.70
2023-02-11T21:29:27.741Z,20.20
2023-02-11T21:31:56.028Z,20.20
2023-02-11T21:34:24.637Z,19.00
2023-02-11T21:36:53.081Z,19.30
2023-02-11T21:39:21.264Z,20.60
2023-02-11T21:41:49.379Z,21.10
2023-02-11T21:44:18.273Z,18.90
2023-02-11T21:46:46.660Z,20.40
2023-02-11T21:49:16.652Z,20.20
2023-02-11T21:51:44.625Z,21.60
2023-02-11T21:54:12.756Z,21.80
2023-02-11T21:56:40.662Z,20.30
2023-02-11T21:59:13.740Z,21.10
2023-02-11T22:01:41.852Z,20.10
2023-02-11T22:04:09.872Z,20.20
2023-02-11T22:06:40.107Z,19.20
2023-02-11T22:09:09.881Z,21.00
2023-02-11T22:11:39.438Z,19.20
2023-02-11T22:14:07.659Z,19.70
2023-02-11T22:16:36.747Z,20.80
2023-02-11T22:19:07.323Z,21.10
2023-02-11T22:21:35.641Z,17.80
2023-02-11T22:24:03.723Z,20.60
2023-02-11T22:26:31.878Z,20.80
2023-02-11T22:29:00.177Z,20.40
2023-02-11T22:31:34.699Z,19.00
2023-02-11T22:34:05.074Z,19.60
2023-02-11T22:36:39.476Z,19.90
2023-02-11T22:39:14.076Z,19.40
2023-02-11T22:41:43.792Z,19.10
2023-02-11T22:44:12.912Z,20.10
2023-02-11T22:46:40.987Z,19.90
2023-02-11T22:49:12.844Z,21.30
2023-02-11T22:51:41.090Z,21.50
2023-02-11T22:54:12.995Z,21.30
2023-02-11T22:56:41.611Z,19.90
2023-02-11T22:59:15.435Z,20.30
2023-02-11T23:01:44.033Z,19.20
2023-02-11T23:04:15.172Z,19.00
2023-02-11T23:06:43.888Z,17.00
2023-02-11T23:09:14.822Z,18.20
2023-02-11T23:11:43.073Z,17.80
2023-02-11T23:14:12.296Z,17.50
2023-02-11T23:16:41.896Z,18.50
2023-02-11T23:19:12.571Z,17.40
2023-02-11T23:21:41.164Z,16.40
2023-02-11T23:24:14.162Z,17.20
2023-02-11T23:26:44.153Z,18.50
2023-02-11T23:29:12.337Z,16.50
2023-02-11T23:31:45.181Z,14.40
2023-02-11T23:34:20.295Z,16.80
2023-02-11T23:36:52.960Z,15.00
2023-02-11T23:39:23.092Z,14.30
2023-02-11T23:41:52.714Z,14.10
2023-02-11T23:44:20.651Z,14.60
2023-02-11T23:46:48.562Z,14.40
2023-02-11T23:49:16.498Z,14.10
2023-02-11T23:51:44.834Z,13.40
2023-02-11T23:54:14.760Z,14.60
2023-02-11T23:56:42.970Z,13.60
2023-02-11T23:59:11.681Z,12.10
